ADDS METAR Data INFO
IDs: Format: Raw Decoded Include TAF

Data at: 1942 UTC 17 Feb 2018

KHCD 171935Z AUTO 30015G22KT 10SM CLR 03/M07 A2990 RMK AO2 T00291074
KHCD 171915Z AUTO 28015G20KT 10SM CLR 03/M07 A2990 RMK AO2 T00301075
KHCD 171855Z AUTO 31015G21KT 10SM CLR 03/M07 A2990 RMK AO2 T00271067
KHCD 171835Z AUTO 30011KT 10SM CLR 03/M06 A2990 RMK AO2 T00311061
KHCD 171815Z AUTO 30011G16KT 10SM CLR 02/M06 A2990 RMK AO2 T00241057
KHCD 171755Z AUTO 29011G16KT 10SM CLR 02/M06 A2990 RMK AO2 T00181056 10019 21038
KHCD 171735Z AUTO 29010KT 10SM CLR 01/M06 A2990 RMK AO2 T00051057
KHCD 171715Z AUTO 30009KT 10SM CLR 01/M06 A2989 RMK AO2 T00061058
KHCD 171655Z AUTO 29007KT 10SM CLR 01/M05 A2989 RMK AO2 T00051055
KHCD 171635Z AUTO 29011KT 10SM CLR 00/M05 A2988 RMK AO2 T00001050
KHCD 171615Z AUTO 29009KT 10SM CLR M01/M05 A2988 RMK AO2 T10091051
KHCD 171555Z AUTO 26009KT 10SM CLR M01/M04 A2988 RMK AO2 T10141041
KHCD 171535Z AUTO 26009KT 10SM CLR M02/M04 A2988 RMK AO2 T10211039
KHCD 171515Z AUTO 24006KT 10SM CLR M03/M04 A2987 RMK AO2 T10261041
KHCD 171455Z AUTO 22006KT 10SM SCT045 M03/M04 A2987 RMK AO2 T10291041
KHCD 171435Z AUTO 20003KT 10SM CLR M03/M04 A2987 RMK AO2 T10331045
KHCD 171415Z AUTO 18003KT 10SM BKN050 M03/M05 A2987 RMK AO2 T10351047
KHCD 171355Z AUTO 20005KT 10SM BKN050 M04/M05 A2987 RMK AO2 T10371050
KHCD 171335Z AUTO 20004KT 10SM SCT029 SCT036 SCT120 M04/M06 A2987 RMK AO2 T10371057
KHCD 171315Z AUTO 20004KT 10SM BKN029 OVC035 M03/M06 A2985 RMK AO2 T10331056
KHCD 171255Z AUTO 22004KT 10SM SCT031 BKN037 OVC075 M03/M06 A2986 RMK AO2 T10341059
KHCD 171235Z AUTO 23005KT 10SM SCT065 BKN080 OVC090 M03/M06 A2985 RMK AO2 T10351061
KHCD 171215Z AUTO 22004KT 10SM OVC100 M03/M06 A2985 RMK AO2 T10351062
KHCD 171155Z AUTO 22004KT 10SM OVC090 M03/M06 A2985 RMK AO2 T10351065 11035 21085
KHCD 171135Z AUTO 21004KT 10SM SCT070 OVC080 M04/M07 A2985 RMK AO2 T10411074
KHCD 171115Z AUTO 16003KT 10SM BKN055 OVC080 M05/M08 A2985 RMK AO2 T10501081
KHCD 171055Z AUTO 00000KT 10SM SCT070 OVC080 M05/M08 A2986 RMK AO2 T10521085
KHCD 171035Z AUTO 00000KT 10SM SCT050 OVC060 M05/M09 A2986 RMK AO2 T10551086
KHCD 171015Z AUTO 17003KT 10SM SCT060 OVC070 M05/M09 A2987 RMK AO2 T10551087
KHCD 170955Z AUTO 18004KT 10SM BKN070 BKN080 M05/M09 A2987 RMK AO2 T10551090
KHCD 170935Z AUTO 00000KT 10SM BKN070 BKN080 M06/M09 A2987 RMK AO2 T10591092
KHCD 170915Z AUTO 18003KT 10SM BKN070 M06/M10 A2989 RMK AO2 T10631097
KHCD 170855Z AUTO 17004KT 10SM OVC070 M06/M10 A2989 RMK AO2 T10651100
KHCD 170835Z AUTO 17005KT 10SM SCT070 BKN080 M07/M10 A2990 RMK AO2 T10661101
KHCD 170815Z AUTO 18005KT 10SM SCT080 BKN110 M07/M10 A2990 RMK AO2 T10691105
KHCD 170755Z AUTO 17007KT 10SM OVC100 M07/M11 A2990 RMK AO2 T10731107
KHCD 170735Z AUTO 17007KT 10SM OVC100 M08/M11 A2991 RMK AO2 T10761110
KHCD 170715Z AUTO 16007KT 10SM BKN110 M08/M11 A2991 RMK AO2 T10801111
KHCD 170655Z AUTO 16005KT 10SM CLR M08/M11 A2992 RMK AO2 T10851115
KHCD 170635Z AUTO 17004KT 10SM CLR M08/M11 A2992 RMK AO2 T10851115
KHCD 170615Z AUTO 16006KT 10SM CLR M08/M11 A2994 RMK AO2 T10831115
KHCD 170555Z AUTO 17005KT 10SM SCT070 M08/M11 A2994 RMK AO2 T10801113 11080 21097 410451182
KHCD 170535Z AUTO 17007KT 10SM BKN070 M08/M11 A2995 RMK AO2 T10811113
KHCD 170515Z AUTO 17009KT 10SM BKN070 M08/M11 A2997 RMK AO2 T10851115
KHCD 170455Z AUTO 16007KT 10SM CLR M09/M12 A2998 RMK AO2 T10931120
KHCD 170435Z AUTO 17009G14KT 10SM CLR M09/M12 A2999 RMK AO2 T10911121
KHCD 170415Z AUTO 17009KT 10SM CLR M09/M12 A2999 RMK AO2 T10911121
KHCD 170355Z AUTO 17008KT 10SM CLR M09/M12 A3000 RMK AO2 T10931125
KHCD 170335Z AUTO 16008KT 10SM CLR M09/M13 A3001 RMK AO2 T10931126
KHCD 170315Z AUTO 16009KT 10SM CLR M09/M13 A3002 RMK AO2 T10951130
KHCD 170255Z AUTO 17008KT 10SM CLR M10/M13 A3004 RMK AO2 T10961131
KHCD 170235Z AUTO 17008KT 10SM CLR M10/M13 A3004 RMK AO2 T10971135
KHCD 170215Z AUTO 17006KT 10SM CLR M09/M14 A3005 RMK AO2 T10951136
KHCD 170155Z AUTO 17008KT 10SM CLR M09/M14 A3007 RMK AO2 T10951139
KHCD 170135Z AUTO 17007KT 10SM CLR M09/M14 A3007 RMK AO2 T10931140
KHCD 170115Z AUTO 17006KT 10SM CLR M09/M14 A3010 RMK AO2 T10931140
KHCD 170055Z AUTO 16007KT 10SM CLR M09/M14 A3010 RMK AO2 T10901142
KHCD 170035Z AUTO 16004KT 10SM CLR M09/M14 A3010 RMK AO2 T10871145
KHCD 170015Z AUTO 17008KT 10SM CLR M08/M15 A3010 RMK AO2 T10821148
KHCD 162355Z AUTO 17008KT 10SM CLR M08/M15 A3011 RMK AO2 T10801151 11045 21080
KHCD 162335Z AUTO 17007G15KT 10SM CLR M07/M15 A3012 RMK AO2 T10741147
KHCD 162315Z AUTO 17010KT 10SM CLR M07/M15 A3012 RMK AO2 T10681148
KHCD 162255Z AUTO 18007G14KT 10SM CLR M06/M14 A3014 RMK AO2 T10641143
KHCD 162235Z AUTO 18011G17KT 10SM CLR M06/M14 A3015 RMK AO2 T10601145
KHCD 162215Z AUTO 18012G17KT 10SM CLR M05/M14 A3016 RMK AO2 T10531144
KHCD 162155Z AUTO 18008KT 10SM CLR M05/M14 A3016 RMK AO2 T10541144
KHCD 162135Z AUTO 17014KT 10SM CLR M06/M14 A3018 RMK AO2 T10571138
KHCD 162115Z AUTO 17012G17KT 10SM CLR M05/M14 A3018 RMK AO2 T10551141
KHCD 162055Z AUTO 18010G16KT 10SM CLR M05/M14 A3020 RMK AO2 T10541137
KHCD 162035Z AUTO 18011G16KT 10SM CLR M05/M14 A3022 RMK AO2 T10551137
KHCD 162015Z AUTO 19011KT 10SM CLR M05/M14 A3023 RMK AO2 T10521139
KHCD 161955Z AUTO 20010G14KT 10SM CLR M05/M14 A3024 RMK AO2 T10481145
KHCD 161935Z AUTO 21010G15KT 10SM CLR M05/M14 A3024 RMK AO2 T10461143
KHCD 161915Z AUTO 18011G14KT 10SM CLR M05/M15 A3026 RMK AO2 T10491149
KHCD 161855Z AUTO 20009KT 10SM CLR M06/M16 A3027 RMK AO2 T10571160
KHCD 161835Z AUTO 22008KT 10SM CLR M06/M17 A3027 RMK AO2 T10611167
KHCD 161815Z AUTO 22009KT 10SM CLR M07/M17 A3029 RMK AO2 T10711170
KHCD 161755Z AUTO 22009KT 10SM CLR M08/M17 A3030 RMK AO2 T10781175 11078 21182
KHCD 161735Z AUTO 22009G14KT 10SM CLR M09/M18 A3031 RMK AO2 T10871177
KHCD 161715Z AUTO 23007KT 10SM CLR M09/M17 A3032 RMK AO2 T10921174
KHCD 161655Z AUTO 22008KT 10SM CLR M10/M18 A3033 RMK AO2 T11001177
KHCD 161635Z AUTO 25009G14KT 10SM CLR M11/M18 A3033 RMK AO2 T11101182
KHCD 161615Z AUTO 25009KT 10SM CLR M11/M18 A3033 RMK AO2 T11131181
KHCD 161555Z AUTO 26009KT 10SM CLR M12/M18 A3034 RMK AO2 T11211179
KHCD 161535Z AUTO 25009KT 10SM CLR M13/M18 A3035 RMK AO2 T11301181
KHCD 161515Z AUTO 24009KT 10SM CLR M14/M19 A3035 RMK AO2 T11381187
KHCD 161455Z AUTO 25010KT 10SM CLR M15/M19 A3036 RMK AO2 T11461190
KHCD 161435Z AUTO 25009KT 10SM CLR M15/M19 A3036 RMK AO2 T11551194
KHCD 161415Z AUTO 24007KT 10SM CLR M16/M20 A3036 RMK AO2 T11631198
KHCD 161355Z AUTO 24005KT 10SM CLR M17/M20 A3035 RMK AO2 T11741205
KHCD 161335Z AUTO 24004KT 10SM CLR M18/M21 A3035 RMK AO2 T11811210
KHCD 161315Z AUTO 25006KT 10SM CLR M18/M21 A3036 RMK AO2 T11821210
KHCD 161255Z AUTO 26006KT 10SM CLR M18/M21 A3036 RMK AO2 T11801210
KHCD 161235Z AUTO 27007KT 10SM CLR M18/M21 A3035 RMK AO2 T11761207
KHCD 161215Z AUTO 27007KT 10SM CLR M17/M21 A3036 RMK AO2 T11751207
KHCD 161155Z AUTO 27008KT 10SM CLR M17/M21 A3036 RMK AO2 T11751207 11139 21175
KHCD 161135Z AUTO 28007KT 10SM CLR M17/M21 A3036 RMK AO2 T11751210
KHCD 161115Z AUTO 28007KT 10SM CLR M17/M21 A3036 RMK AO2 T11721208
KHCD 161055Z AUTO 27008KT 10SM CLR M17/M21 A3035 RMK AO2 T11711206
KHCD 161035Z AUTO 28007KT 10SM CLR M17/M20 A3035 RMK AO2 T11711205
KHCD 161015Z AUTO 28007KT 10SM CLR M17/M20 A3035 RMK AO2 T11681205
KHCD 160955Z AUTO 29006KT 10SM CLR M17/M20 A3036 RMK AO2 T11661205
KHCD 160935Z AUTO 29009G14KT 10SM CLR M16/M21 A3036 RMK AO2 T11621206
KHCD 160915Z AUTO 30008KT 10SM CLR M16/M21 A3035 RMK AO2 T11621210
KHCD 160855Z AUTO 30009KT 10SM CLR M16/M21 A3035 RMK AO2 T11601210
KHCD 160835Z AUTO 30013KT 10SM CLR M16/M21 A3034 RMK AO2 T11591211
KHCD 160815Z AUTO 30014G18KT 10SM CLR M16/M21 A3033 RMK AO2 T11571215
KHCD 160755Z AUTO 31014G19KT 10SM CLR M16/M21 A3032 RMK AO2 T11561214